Terminal Aerodrome Forecast
Issued by NWS

Current Version | Previous Version | Text Only | Print | Product List | Glossary On
Versions: 1 2 3 4 5 6 7 8 9 10 11 12
000
FTUS45 KVEF 310500
TAFEED
TAF
KEED 310529Z 3106/0106 33007KT P6SM VCSH FEW050 OVC070
     FM311900 01015G23KT P6SM SCT070
     FM010200 34010KT P6SM FEW080=

USA.gov is the U.S. government's official web portal to all federal, state and local government web resources and services.